sensor_id;sensor_type;location;lat;lon;timestamp;P1;durP1;ratioP1;P2;durP2;ratioP2
13240;SDS011;6687;47.790;7.322;2023-05-14T05:24:10;1.13;;;1.00;;
13240;SDS011;6687;47.790;7.322;2023-05-14T05:26:37;0.80;;;0.80;;
13240;SDS011;6687;47.790;7.322;2023-05-14T05:29:04;0.60;;;0.60;;
13240;SDS011;6687;47.790;7.322;2023-05-14T05:31:31;0.70;;;0.70;;
13240;SDS011;6687;47.790;7.322;2023-05-14T05:33:57;1.20;;;1.10;;
13240;SDS011;6687;47.790;7.322;2023-05-14T05:36:24;1.63;;;0.98;;
13240;SDS011;6687;47.790;7.322;2023-05-14T05:38:52;0.43;;;0.43;;
13240;SDS011;6687;47.790;7.322;2023-05-14T05:41:20;0.93;;;0.93;;
13240;SDS011;6687;47.790;7.322;2023-05-14T05:43:47;0.98;;;0.75;;
13240;SDS011;6687;47.790;7.322;2023-05-14T05:46:14;0.70;;;0.70;;
13240;SDS011;6687;47.790;7.322;2023-05-14T05:48:40;1.52;;;1.20;;
13240;SDS011;6687;47.790;7.322;2023-05-14T05:51:07;1.00;;;0.63;;
13240;SDS011;6687;47.790;7.322;2023-05-14T05:53:34;0.70;;;0.52;;
13240;SDS011;6687;47.790;7.322;2023-05-14T05:56:01;1.13;;;0.90;;
13240;SDS011;6687;47.790;7.322;2023-05-14T05:58:29;0.75;;;0.70;;
13240;SDS011;6687;47.790;7.322;2023-05-14T06:00:55;0.95;;;0.93;;
13240;SDS011;6687;47.790;7.322;2023-05-14T06:03:22;0.77;;;0.77;;
13240;SDS011;6687;47.790;7.322;2023-05-14T06:05:49;0.50;;;0.50;;
13240;SDS011;6687;47.790;7.322;2023-05-14T06:08:16;1.05;;;0.95;;
13240;SDS011;6687;47.790;7.322;2023-05-14T06:10:43;1.33;;;1.23;;
13240;SDS011;6687;47.790;7.322;2023-05-14T06:13:10;1.50;;;1.08;;
13240;SDS011;6687;47.790;7.322;2023-05-14T06:15:38;0.88;;;0.88;;
13240;SDS011;6687;47.790;7.322;2023-05-14T06:18:05;1.02;;;0.98;;
13240;SDS011;6687;47.790;7.322;2023-05-14T06:20:31;0.50;;;0.50;;
13240;SDS011;6687;47.790;7.322;2023-05-14T06:22:58;0.73;;;0.73;;
13240;SDS011;6687;47.790;7.322;2023-05-14T06:25:25;0.70;;;0.70;;
13240;SDS011;6687;47.790;7.322;2023-05-14T06:27:52;0.70;;;0.70;;
13240;SDS011;6687;47.790;7.322;2023-05-14T06:30:18;1.30;;;1.00;;
13240;SDS011;6687;47.790;7.322;2023-05-14T06:32:47;0.73;;;0.73;;
13240;SDS011;6687;47.790;7.322;2023-05-14T06:35:13;0.60;;;0.60;;
13240;SDS011;6687;47.790;7.322;2023-05-14T06:37:40;1.08;;;1.08;;
13240;SDS011;6687;47.790;7.322;2023-05-14T06:40:07;0.98;;;0.95;;
13240;SDS011;6687;47.790;7.322;2023-05-14T06:42:34;1.15;;;0.90;;
13240;SDS011;6687;47.790;7.322;2023-05-14T06:45:01;0.73;;;0.73;;
13240;SDS011;6687;47.790;7.322;2023-05-14T06:47:28;0.60;;;0.60;;
13240;SDS011;6687;47.790;7.322;2023-05-14T06:49:56;1.00;;;0.90;;
13240;SDS011;6687;47.790;7.322;2023-05-14T06:52:25;0.90;;;0.90;;
13240;SDS011;6687;47.790;7.322;2023-05-14T06:54:51;0.90;;;0.90;;
13240;SDS011;6687;47.790;7.322;2023-05-14T06:57:19;1.08;;;0.90;;
13240;SDS011;6687;47.790;7.322;2023-05-14T06:59:46;1.20;;;1.10;;
13240;SDS011;6687;47.790;7.322;2023-05-14T07:02:12;1.15;;;1.00;;
13240;SDS011;6687;47.790;7.322;2023-05-14T07:04:39;0.90;;;0.85;;
13240;SDS011;6687;47.790;7.322;2023-05-14T07:07:07;1.20;;;1.10;;
13240;SDS011;6687;47.790;7.322;2023-05-14T07:09:34;1.80;;;1.70;;
13240;SDS011;6687;47.790;7.322;2023-05-14T07:12:01;1.30;;;1.20;;
13240;SDS011;6687;47.790;7.322;2023-05-14T07:14:28;0.95;;;0.93;;
13240;SDS011;6687;47.790;7.322;2023-05-14T07:16:54;1.75;;;1.27;;
13240;SDS011;6687;47.790;7.322;2023-05-14T07:19:22;1.45;;;1.35;;
13240;SDS011;6687;47.790;7.322;2023-05-14T07:21:49;1.90;;;1.50;;
13240;SDS011;6687;47.790;7.322;2023-05-14T07:24:17;1.35;;;1.25;;
13240;SDS011;6687;47.790;7.322;2023-05-14T07:26:43;1.40;;;1.30;;
13240;SDS011;6687;47.790;7.322;2023-05-14T07:29:10;2.35;;;1.52;;
13240;SDS011;6687;47.790;7.322;2023-05-14T07:31:37;2.13;;;1.67;;
13240;SDS011;6687;47.790;7.322;2023-05-14T07:34:03;1.35;;;1.30;;
13240;SDS011;6687;47.790;7.322;2023-05-14T07:36:31;1.58;;;1.45;;
13240;SDS011;6687;47.790;7.322;2023-05-14T07:38:58;1.60;;;1.50;;
13240;SDS011;6687;47.790;7.322;2023-05-14T07:41:27;1.75;;;1.60;;
13240;SDS011;6687;47.790;7.322;2023-05-14T07:43:53;2.70;;;1.50;;
13240;SDS011;6687;47.790;7.322;2023-05-14T07:46:20;1.63;;;1.52;;
13240;SDS011;6687;47.790;7.322;2023-05-14T07:48:47;1.50;;;1.40;;
13240;SDS011;6687;47.790;7.322;2023-05-14T07:51:14;2.05;;;1.63;;
13240;SDS011;6687;47.790;7.322;2023-05-14T07:53:41;1.60;;;1.50;;
13240;SDS011;6687;47.790;7.322;2023-05-14T07:56:08;2.08;;;1.42;;
13240;SDS011;6687;47.790;7.322;2023-05-14T07:58:36;3.30;;;1.60;;
13240;SDS011;6687;47.790;7.322;2023-05-14T08:01:03;1.17;;;1.00;;
13240;SDS011;6687;47.790;7.322;2023-05-14T08:03:31;1.60;;;1.48;;
13240;SDS011;6687;47.790;7.322;2023-05-14T08:05:58;1.45;;;1.27;;
13240;SDS011;6687;47.790;7.322;2023-05-14T08:08:24;1.27;;;1.23;;
13240;SDS011;6687;47.790;7.322;2023-05-14T08:10:51;1.60;;;1.42;;
13240;SDS011;6687;47.790;7.322;2023-05-14T08:13:18;1.55;;;1.10;;
13240;SDS011;6687;47.790;7.322;2023-05-14T08:15:46;1.52;;;1.42;;
13240;SDS011;6687;47.790;7.322;2023-05-14T08:18:12;1.65;;;1.55;;
13240;SDS011;6687;47.790;7.322;2023-05-14T08:20:39;2.30;;;2.10;;
13240;SDS011;6687;47.790;7.322;2023-05-14T08:23:06;1.35;;;1.25;;
13240;SDS011;6687;47.790;7.322;2023-05-14T08:25:33;1.52;;;1.30;;
13240;SDS011;6687;47.790;7.322;2023-05-14T08:28:00;1.45;;;1.35;;
13240;SDS011;6687;47.790;7.322;2023-05-14T08:30:26;1.45;;;1.38;;
13240;SDS011;6687;47.790;7.322;2023-05-14T08:32:54;1.77;;;1.20;;
13240;SDS011;6687;47.790;7.322;2023-05-14T08:35:21;1.42;;;1.00;;
13240;SDS011;6687;47.790;7.322;2023-05-14T08:37:48;2.20;;;2.00;;
13240;SDS011;6687;47.790;7.322;2023-05-14T08:40:15;1.10;;;1.10;;
13240;SDS011;6687;47.790;7.322;2023-05-14T08:42:42;1.00;;;1.00;;
13240;SDS011;6687;47.790;7.322;2023-05-14T08:45:10;1.17;;;1.10;;
13240;SDS011;6687;47.790;7.322;2023-05-14T08:47:41;1.48;;;1.20;;
13240;SDS011;6687;47.790;7.322;2023-05-14T08:50:13;1.23;;;1.02;;
13240;SDS011;6687;47.790;7.322;2023-05-14T08:52:41;0.82;;;0.80;;
13240;SDS011;6687;47.790;7.322;2023-05-14T08:55:08;0.88;;;0.73;;
13240;SDS011;6687;47.790;7.322;2023-05-14T08:57:36;1.58;;;1.20;;
13240;SDS011;6687;47.790;7.322;2023-05-14T09:00:04;1.45;;;1.10;;
13240;SDS011;6687;47.790;7.322;2023-05-14T09:02:35;0.93;;;0.93;;
13240;SDS011;6687;47.790;7.322;2023-05-14T09:05:04;1.00;;;1.00;;
13240;SDS011;6687;47.790;7.322;2023-05-14T09:07:34;1.42;;;1.33;;
13240;SDS011;6687;47.790;7.322;2023-05-14T09:10:01;1.10;;;0.85;;
13240;SDS011;6687;47.790;7.322;2023-05-14T09:12:29;1.10;;;0.95;;
13240;SDS011;6687;47.790;7.322;2023-05-14T09:14:56;0.90;;;0.85;;
13240;SDS011;6687;47.790;7.322;2023-05-14T09:17:24;1.23;;;0.80;;
13240;SDS011;6687;47.790;7.322;2023-05-14T09:19:51;1.70;;;1.20;;
13240;SDS011;6687;47.790;7.322;2023-05-14T09:22:18;0.73;;;0.70;;
13240;SDS011;6687;47.790;7.322;2023-05-14T09:24:47;2.88;;;1.20;;
13240;SDS011;6687;47.790;7.322;2023-05-14T09:27:28;1.00;;;1.00;;
13240;SDS011;6687;47.790;7.322;2023-05-14T09:29:55;1.17;;;0.93;;
13240;SDS011;6687;47.790;7.322;2023-05-14T09:32:33;0.60;;;0.60;;
13240;SDS011;6687;47.790;7.322;2023-05-14T09:35:07;1.05;;;0.80;;
13240;SDS011;6687;47.790;7.322;2023-05-14T09:37:35;0.77;;;0.77;;
13240;SDS011;6687;47.790;7.322;2023-05-14T09:40:06;0.85;;;0.85;;
13240;SDS011;6687;47.790;7.322;2023-05-14T09:42:34;0.90;;;0.88;;
13240;SDS011;6687;47.790;7.322;2023-05-14T09:45:00;1.42;;;1.02;;
13240;SDS011;6687;47.790;7.322;2023-05-14T09:47:28;2.63;;;1.05;;
13240;SDS011;6687;47.790;7.322;2023-05-14T09:49:55;0.80;;;0.60;;
13240;SDS011;6687;47.790;7.322;2023-05-14T09:52:22;1.77;;;1.20;;
13240;SDS011;6687;47.790;7.322;2023-05-14T09:54:49;0.80;;;0.80;;
13240;SDS011;6687;47.790;7.322;2023-05-14T09:57:18;0.98;;;0.88;;
13240;SDS011;6687;47.790;7.322;2023-05-14T09:59:45;0.93;;;0.88;;
13240;SDS011;6687;47.790;7.322;2023-05-14T10:02:15;1.50;;;1.40;;
13240;SDS011;6687;47.790;7.322;2023-05-14T10:04:46;0.98;;;0.98;;
13240;SDS011;6687;47.790;7.322;2023-05-14T10:07:14;0.93;;;0.88;;
13240;SDS011;6687;47.790;7.322;2023-05-14T10:09:42;1.73;;;1.20;;
13240;SDS011;6687;47.790;7.322;2023-05-14T10:12:11;1.38;;;0.88;;
13240;SDS011;6687;47.790;7.322;2023-05-14T10:14:44;0.52;;;0.50;;
13240;SDS011;6687;47.790;7.322;2023-05-14T10:17:13;0.93;;;0.52;;
13240;SDS011;6687;47.790;7.322;2023-05-14T10:19:45;0.75;;;0.75;;
13240;SDS011;6687;47.790;7.322;2023-05-14T10:22:22;1.52;;;0.60;;
13240;SDS011;6687;47.790;7.322;2023-05-14T10:24:52;0.68;;;0.63;;
13240;SDS011;6687;47.790;7.322;2023-05-14T10:27:21;1.00;;;0.73;;
13240;SDS011;6687;47.790;7.322;2023-05-14T10:29:51;0.80;;;0.80;;
13240;SDS011;6687;47.790;7.322;2023-05-14T10:32:19;0.63;;;0.63;;
13240;SDS011;6687;47.790;7.322;2023-05-14T10:34:47;0.50;;;0.50;;
13240;SDS011;6687;47.790;7.322;2023-05-14T10:37:14;0.93;;;0.93;;
13240;SDS011;6687;47.790;7.322;2023-05-14T10:39:42;0.65;;;0.60;;
13240;SDS011;6687;47.790;7.322;2023-05-14T10:42:10;1.23;;;0.65;;
13240;SDS011;6687;47.790;7.322;2023-05-14T10:44:40;1.00;;;0.98;;
13240;SDS011;6687;47.790;7.322;2023-05-14T10:47:14;0.65;;;0.65;;
13240;SDS011;6687;47.790;7.322;2023-05-14T10:49:42;0.38;;;0.38;;
13240;SDS011;6687;47.790;7.322;2023-05-14T10:52:13;0.82;;;0.50;;
13240;SDS011;6687;47.790;7.322;2023-05-14T10:54:44;1.00;;;0.90;;
13240;SDS011;6687;47.790;7.322;2023-05-14T10:57:14;0.80;;;0.80;;
13240;SDS011;6687;47.790;7.322;2023-05-14T10:59:42;0.70;;;0.70;;
13240;SDS011;6687;47.790;7.322;2023-05-14T11:02:20;1.13;;;0.90;;
13240;SDS011;6687;47.790;7.322;2023-05-14T11:04:56;0.88;;;0.88;;
13240;SDS011;6687;47.790;7.322;2023-05-14T11:07:26;0.80;;;0.80;;
13240;SDS011;6687;47.790;7.322;2023-05-14T11:09:58;1.17;;;0.93;;
13240;SDS011;6687;47.790;7.322;2023-05-14T11:12:26;0.82;;;0.82;;
13240;SDS011;6687;47.790;7.322;2023-05-14T11:14:53;0.95;;;0.80;;
13240;SDS011;6687;47.790;7.322;2023-05-14T11:17:23;1.40;;;0.70;;
13240;SDS011;6687;47.790;7.322;2023-05-14T11:19:50;1.00;;;0.80;;
13240;SDS011;6687;47.790;7.322;2023-05-14T11:22:17;1.23;;;1.13;;
13240;SDS011;6687;47.790;7.322;2023-05-14T11:24:43;0.93;;;0.88;;
13240;SDS011;6687;47.790;7.322;2023-05-14T11:27:10;0.82;;;0.73;;
13240;SDS011;6687;47.790;7.322;2023-05-14T11:29:37;1.10;;;1.00;;
13240;SDS011;6687;47.790;7.322;2023-05-14T11:32:04;0.70;;;0.70;;
13240;SDS011;6687;47.790;7.322;2023-05-14T11:34:33;0.73;;;0.55;;
13240;SDS011;6687;47.790;7.322;2023-05-14T11:37:01;2.08;;;1.10;;
13240;SDS011;6687;47.790;7.322;2023-05-14T11:39:29;0.95;;;0.90;;
13240;SDS011;6687;47.790;7.322;2023-05-14T11:41:57;1.30;;;0.95;;
13240;SDS011;6687;47.790;7.322;2023-05-14T11:44:24;1.10;;;1.00;;
13240;SDS011;6687;47.790;7.322;2023-05-14T11:46:54;0.80;;;0.80;;
13240;SDS011;6687;47.790;7.322;2023-05-14T11:49:21;1.42;;;1.17;;
13240;SDS011;6687;47.790;7.322;2023-05-14T11:51:50;2.78;;;0.88;;
13240;SDS011;6687;47.790;7.322;2023-05-14T11:54:24;0.68;;;0.68;;
13240;SDS011;6687;47.790;7.322;2023-05-14T11:56:51;1.02;;;0.93;;
13240;SDS011;6687;47.790;7.322;2023-05-14T11:59:19;0.73;;;0.73;;
13240;SDS011;6687;47.790;7.322;2023-05-14T12:01:46;0.70;;;0.70;;
13240;SDS011;6687;47.790;7.322;2023-05-14T12:04:13;1.13;;;1.02;;
13240;SDS011;6687;47.790;7.322;2023-05-14T12:06:40;1.13;;;0.90;;
13240;SDS011;6687;47.790;7.322;2023-05-14T12:09:08;1.15;;;0.90;;
13240;SDS011;6687;47.790;7.322;2023-05-14T12:11:40;1.42;;;1.10;;
13240;SDS011;6687;47.790;7.322;2023-05-14T12:14:10;1.02;;;0.95;;
13240;SDS011;6687;47.790;7.322;2023-05-14T12:16:38;0.80;;;0.77;;
13240;SDS011;6687;47.790;7.322;2023-05-14T12:19:07;0.80;;;0.80;;
13240;SDS011;6687;47.790;7.322;2023-05-14T12:21:35;1.05;;;0.95;;
13240;SDS011;6687;47.790;7.322;2023-05-14T12:24:03;0.95;;;0.95;;
13240;SDS011;6687;47.790;7.322;2023-05-14T12:26:32;1.00;;;0.85;;
13240;SDS011;6687;47.790;7.322;2023-05-14T12:28:59;1.10;;;1.00;;
13240;SDS011;6687;47.790;7.322;2023-05-14T12:31:27;0.77;;;0.77;;
13240;SDS011;6687;47.790;7.322;2023-05-14T12:33:54;0.70;;;0.70;;
13240;SDS011;6687;47.790;7.322;2023-05-14T12:36:21;1.60;;;0.90;;
13240;SDS011;6687;47.790;7.322;2023-05-14T12:38:48;0.80;;;0.80;;
13240;SDS011;6687;47.790;7.322;2023-05-14T12:41:16;0.68;;;0.68;;
13240;SDS011;6687;47.790;7.322;2023-05-14T12:43:44;0.80;;;0.80;;
13240;SDS011;6687;47.790;7.322;2023-05-14T12:46:13;1.00;;;0.85;;
13240;SDS011;6687;47.790;7.322;2023-05-14T12:48:40;0.75;;;0.50;;
13240;SDS011;6687;47.790;7.322;2023-05-14T12:51:07;0.65;;;0.65;;
13240;SDS011;6687;47.790;7.322;2023-05-14T12:53:33;1.08;;;0.85;;
13240;SDS011;6687;47.790;7.322;2023-05-14T12:56:00;0.85;;;0.80;;
13240;SDS011;6687;47.790;7.322;2023-05-14T12:58:27;1.02;;;0.90;;
13240;SDS011;6687;47.790;7.322;2023-05-14T13:00:55;0.90;;;0.60;;
13240;SDS011;6687;47.790;7.322;2023-05-14T13:03:22;0.70;;;0.70;;
13240;SDS011;6687;47.790;7.322;2023-05-14T13:05:49;0.50;;;0.50;;
13240;SDS011;6687;47.790;7.322;2023-05-14T13:08:16;1.10;;;1.00;;
13240;SDS011;6687;47.790;7.322;2023-05-14T13:10:45;0.73;;;0.70;;
13240;SDS011;6687;47.790;7.322;2023-05-14T13:13:13;0.95;;;0.70;;
13240;SDS011;6687;47.790;7.322;2023-05-14T13:15:40;0.70;;;0.70;;
13240;SDS011;6687;47.790;7.322;2023-05-14T13:18:09;0.43;;;0.43;;
13240;SDS011;6687;47.790;7.322;2023-05-14T13:20:36;0.50;;;0.50;;
13240;SDS011;6687;47.790;7.322;2023-05-14T13:23:02;0.75;;;0.70;;
13240;SDS011;6687;47.790;7.322;2023-05-14T13:25:29;0.60;;;0.60;;
13240;SDS011;6687;47.790;7.322;2023-05-14T13:27:56;0.57;;;0.45;;
13240;SDS011;6687;47.790;7.322;2023-05-14T13:30:23;0.85;;;0.68;;
13240;SDS011;6687;47.790;7.322;2023-05-14T13:32:50;0.95;;;0.70;;
13240;SDS011;6687;47.790;7.322;2023-05-14T13:35:18;0.80;;;0.68;;
13240;SDS011;6687;47.790;7.322;2023-05-14T13:37:45;0.70;;;0.70;;
13240;SDS011;6687;47.790;7.322;2023-05-14T13:40:12;0.45;;;0.45;;
13240;SDS011;6687;47.790;7.322;2023-05-14T13:42:39;0.75;;;0.75;;
13240;SDS011;6687;47.790;7.322;2023-05-14T13:45:06;0.52;;;0.52;;
13240;SDS011;6687;47.790;7.322;2023-05-14T13:47:33;0.60;;;0.60;;
13240;SDS011;6687;47.790;7.322;2023-05-14T13:50:00;1.48;;;1.05;;
13240;SDS011;6687;47.790;7.322;2023-05-14T13:52:28;0.98;;;0.90;;
13240;SDS011;6687;47.790;7.322;2023-05-14T13:54:54;1.05;;;0.65;;
13240;SDS011;6687;47.790;7.322;2023-05-14T13:57:21;0.80;;;0.80;;
13240;SDS011;6687;47.790;7.322;2023-05-14T13:59:48;0.65;;;0.60;;
13240;SDS011;6687;47.790;7.322;2023-05-14T14:02:15;0.80;;;0.80;;
13240;SDS011;6687;47.790;7.322;2023-05-14T14:04:41;0.57;;;0.52;;
13240;SDS011;6687;47.790;7.322;2023-05-14T14:07:08;0.85;;;0.68;;
13240;SDS011;6687;47.790;7.322;2023-05-14T14:09:36;0.75;;;0.68;;
13240;SDS011;6687;47.790;7.322;2023-05-14T14:12:03;0.63;;;0.63;;
13240;SDS011;6687;47.790;7.322;2023-05-14T14:14:31;1.45;;;0.95;;
13240;SDS011;6687;47.790;7.322;2023-05-14T14:16:57;0.45;;;0.45;;
13240;SDS011;6687;47.790;7.322;2023-05-14T14:19:24;0.60;;;0.45;;
13240;SDS011;6687;47.790;7.322;2023-05-14T14:21:51;1.00;;;0.70;;
13240;SDS011;6687;47.790;7.322;2023-05-14T14:24:17;0.60;;;0.60;;
13240;SDS011;6687;47.790;7.322;2023-05-14T14:26:46;0.60;;;0.60;;
13240;SDS011;6687;47.790;7.322;2023-05-14T14:29:12;1.17;;;0.73;;
13240;SDS011;6687;47.790;7.322;2023-05-14T14:31:39;0.50;;;0.50;;
13240;SDS011;6687;47.790;7.322;2023-05-14T14:34:06;0.90;;;0.90;;
13240;SDS011;6687;47.790;7.322;2023-05-14T14:36:33;1.20;;;1.10;;
13240;SDS011;6687;47.790;7.322;2023-05-14T14:39:00;0.98;;;0.93;;
13240;SDS011;6687;47.790;7.322;2023-05-14T14:41:26;1.77;;;1.67;;
13240;SDS011;6687;47.790;7.322;2023-05-14T14:43:54;1.38;;;1.27;;
13240;SDS011;6687;47.790;7.322;2023-05-14T14:46:21;0.88;;;0.88;;
13240;SDS011;6687;47.790;7.322;2023-05-14T14:48:48;1.65;;;1.55;;
13240;SDS011;6687;47.790;7.322;2023-05-14T14:51:14;1.10;;;1.10;;
13240;SDS011;6687;47.790;7.322;2023-05-14T14:53:41;1.48;;;1.38;;
13240;SDS011;6687;47.790;7.322;2023-05-14T14:56:08;1.02;;;0.88;;
13240;SDS011;6687;47.790;7.322;2023-05-14T14:58:35;0.68;;;0.68;;
13240;SDS011;6687;47.790;7.322;2023-05-14T15:01:03;0.60;;;0.57;;
13240;SDS011;6687;47.790;7.322;2023-05-14T15:03:30;0.45;;;0.45;;
13240;SDS011;6687;47.790;7.322;2023-05-14T15:05:57;1.27;;;1.17;;
13240;SDS011;6687;47.790;7.322;2023-05-14T15:08:25;0.70;;;0.70;;
13240;SDS011;6687;47.790;7.322;2023-05-14T15:10:52;1.15;;;0.60;;
13240;SDS011;6687;47.790;7.322;2023-05-14T15:13:19;1.27;;;0.80;;
13240;SDS011;6687;47.790;7.322;2023-05-14T15:15:46;2.03;;;0.70;;
13240;SDS011;6687;47.790;7.322;2023-05-14T15:18:14;1.27;;;0.70;;
13240;SDS011;6687;47.790;7.322;2023-05-14T15:20:41;0.50;;;0.40;;
13240;SDS011;6687;47.790;7.322;2023-05-14T15:23:07;0.40;;;0.40;;
13240;SDS011;6687;47.790;7.322;2023-05-14T15:25:35;0.50;;;0.50;;
13240;SDS011;6687;47.790;7.322;2023-05-14T15:28:03;0.70;;;0.52;;
13240;SDS011;6687;47.790;7.322;2023-05-14T15:30:30;0.40;;;0.40;;
13240;SDS011;6687;47.790;7.322;2023-05-14T15:32:57;0.30;;;0.30;;
13240;SDS011;6687;47.790;7.322;2023-05-14T15:35:25;0.40;;;0.40;;
13240;SDS011;6687;47.790;7.322;2023-05-14T15:37:53;0.40;;;0.40;;
13240;SDS011;6687;47.790;7.322;2023-05-14T15:40:21;0.40;;;0.40;;
13240;SDS011;6687;47.790;7.322;2023-05-14T15:42:48;0.60;;;0.60;;
13240;SDS011;6687;47.790;7.322;2023-05-14T15:45:14;0.68;;;0.50;;
13240;SDS011;6687;47.790;7.322;2023-05-14T15:47:41;0.40;;;0.40;;
13240;SDS011;6687;47.790;7.322;2023-05-14T15:50:09;0.38;;;0.38;;
13240;SDS011;6687;47.790;7.322;2023-05-14T15:52:37;0.57;;;0.38;;
13240;SDS011;6687;47.790;7.322;2023-05-14T15:55:04;0.57;;;0.50;;
13240;SDS011;6687;47.790;7.322;2023-05-14T15:57:31;0.55;;;0.55;;
13240;SDS011;6687;47.790;7.322;2023-05-14T15:59:58;0.20;;;0.20;;
13240;SDS011;6687;47.790;7.322;2023-05-14T16:02:25;1.20;;;0.55;;
13240;SDS011;6687;47.790;7.322;2023-05-14T16:04:54;0.30;;;0.30;;
13240;SDS011;6687;47.790;7.322;2023-05-14T16:07:21;0.55;;;0.47;;
13240;SDS011;6687;47.790;7.322;2023-05-14T16:09:49;0.40;;;0.40;;
13240;SDS011;6687;47.790;7.322;2023-05-14T16:12:16;0.60;;;0.60;;
13240;SDS011;6687;47.790;7.322;2023-05-14T16:14:42;1.15;;;0.88;;
13240;SDS011;6687;47.790;7.322;2023-05-14T16:17:09;0.82;;;0.82;;
13240;SDS011;6687;47.790;7.322;2023-05-14T16:19:36;1.40;;;0.80;;
13240;SDS011;6687;47.790;7.322;2023-05-14T16:22:04;1.98;;;1.02;;
13240;SDS011;6687;47.790;7.322;2023-05-14T16:24:31;1.42;;;0.70;;
13240;SDS011;6687;47.790;7.322;2023-05-14T16:26:59;0.75;;;0.65;;
13240;SDS011;6687;47.790;7.322;2023-05-14T16:29:26;0.68;;;0.47;;
13240;SDS011;6687;47.790;7.322;2023-05-14T16:31:53;0.82;;;0.68;;
13240;SDS011;6687;47.790;7.322;2023-05-14T16:34:20;0.57;;;0.47;;
13240;SDS011;6687;47.790;7.322;2023-05-14T16:36:46;0.55;;;0.55;;
13240;SDS011;6687;47.790;7.322;2023-05-14T16:39:13;0.40;;;0.40;;
13240;SDS011;6687;47.790;7.322;2023-05-14T16:41:40;0.65;;;0.65;;
13240;SDS011;6687;47.790;7.322;2023-05-14T16:44:08;0.80;;;0.77;;
13240;SDS011;6687;47.790;7.322;2023-05-14T16:46:35;0.70;;;0.70;;
13240;SDS011;6687;47.790;7.322;2023-05-14T16:49:02;0.98;;;0.68;;
13240;SDS011;6687;47.790;7.322;2023-05-14T16:51:28;0.35;;;0.35;;
13240;SDS011;6687;47.790;7.322;2023-05-14T16:53:55;0.80;;;0.80;;
13240;SDS011;6687;47.790;7.322;2023-05-14T16:56:22;0.60;;;0.60;;
13240;SDS011;6687;47.790;7.322;2023-05-14T16:58:49;0.55;;;0.55;;
13240;SDS011;6687;47.790;7.322;2023-05-14T17:01:17;0.77;;;0.70;;
13240;SDS011;6687;47.790;7.322;2023-05-14T17:03:43;0.57;;;0.57;;
13240;SDS011;6687;47.790;7.322;2023-05-14T17:06:10;0.68;;;0.65;;
13240;SDS011;6687;47.790;7.322;2023-05-14T17:08:37;0.70;;;0.70;;
13240;SDS011;6687;47.790;7.322;2023-05-14T17:11:04;0.70;;;0.70;;
13240;SDS011;6687;47.790;7.322;2023-05-14T17:13:31;1.10;;;0.68;;
13240;SDS011;6687;47.790;7.322;2023-05-14T17:15:58;0.98;;;0.70;;
13240;SDS011;6687;47.790;7.322;2023-05-14T17:18:26;0.80;;;0.80;;
13240;SDS011;6687;47.790;7.322;2023-05-14T17:20:53;1.20;;;0.93;;
13240;SDS011;6687;47.790;7.322;2023-05-14T17:23:19;1.08;;;0.90;;
13240;SDS011;6687;47.790;7.322;2023-05-14T17:25:46;0.63;;;0.63;;
13240;SDS011;6687;47.790;7.322;2023-05-14T17:28:13;1.23;;;0.63;;
13240;SDS011;6687;47.790;7.322;2023-05-14T17:30:39;1.80;;;0.77;;
13240;SDS011;6687;47.790;7.322;2023-05-14T17:33:06;0.70;;;0.70;;
13240;SDS011;6687;47.790;7.322;2023-05-14T17:35:34;0.65;;;0.57;;
13240;SDS011;6687;47.790;7.322;2023-05-14T17:38:01;0.70;;;0.70;;
13240;SDS011;6687;47.790;7.322;2023-05-14T17:40:28;1.05;;;1.00;;
13240;SDS011;6687;47.790;7.322;2023-05-14T17:42:55;1.13;;;0.75;;
13240;SDS011;6687;47.790;7.322;2023-05-14T17:45:21;3.25;;;1.33;;
13240;SDS011;6687;47.790;7.322;2023-05-14T17:47:48;2.03;;;1.05;;
13240;SDS011;6687;47.790;7.322;2023-05-14T17:50:15;1.13;;;0.73;;
13240;SDS011;6687;47.790;7.322;2023-05-14T17:52:43;0.82;;;0.82;;
13240;SDS011;6687;47.790;7.322;2023-05-14T17:55:11;1.27;;;1.17;;
13240;SDS011;6687;47.790;7.322;2023-05-14T17:57:38;1.25;;;1.00;;
13240;SDS011;6687;47.790;7.322;2023-05-14T18:00:07;1.23;;;1.13;;
13240;SDS011;6687;47.790;7.322;2023-05-14T18:02:34;0.80;;;0.80;;
13240;SDS011;6687;47.790;7.322;2023-05-14T18:05:00;0.95;;;0.90;;
13240;SDS011;6687;47.790;7.322;2023-05-14T18:07:28;0.90;;;0.82;;
13240;SDS011;6687;47.790;7.322;2023-05-14T18:09:56;0.95;;;0.85;;
13240;SDS011;6687;47.790;7.322;2023-05-14T18:12:23;1.00;;;0.90;;
13240;SDS011;6687;47.790;7.322;2023-05-14T18:14:51;4.07;;;0.88;;
13240;SDS011;6687;47.790;7.322;2023-05-14T18:17:18;0.57;;;0.50;;
13240;SDS011;6687;47.790;7.322;2023-05-14T18:19:44;1.65;;;0.93;;
13240;SDS011;6687;47.790;7.322;2023-05-14T18:22:11;1.63;;;0.82;;
13240;SDS011;6687;47.790;7.322;2023-05-14T18:24:38;0.70;;;0.70;;
13240;SDS011;6687;47.790;7.322;2023-05-14T18:27:06;1.40;;;0.75;;
13240;SDS011;6687;47.790;7.322;2023-05-14T18:29:33;0.70;;;0.60;;
13240;SDS011;6687;47.790;7.322;2023-05-14T18:32:00;0.70;;;0.50;;
13240;SDS011;6687;47.790;7.322;2023-05-14T18:34:27;0.90;;;0.60;;
13240;SDS011;6687;47.790;7.322;2023-05-14T18:36:53;0.75;;;0.50;;
13240;SDS011;6687;47.790;7.322;2023-05-14T18:39:20;0.77;;;0.77;;
13240;SDS011;6687;47.790;7.322;2023-05-14T18:41:47;0.40;;;0.40;;
13240;SDS011;6687;47.790;7.322;2023-05-14T18:44:15;0.50;;;0.40;;
13240;SDS011;6687;47.790;7.322;2023-05-14T18:46:41;0.38;;;0.38;;
13240;SDS011;6687;47.790;7.322;2023-05-14T18:49:08;0.82;;;0.70;;
13240;SDS011;6687;47.790;7.322;2023-05-14T18:51:35;0.60;;;0.60;;
13240;SDS011;6687;47.790;7.322;2023-05-14T18:54:01;0.57;;;0.57;;
13240;SDS011;6687;47.790;7.322;2023-05-14T18:56:28;0.73;;;0.50;;
13240;SDS011;6687;47.790;7.322;2023-05-14T18:58:55;0.88;;;0.70;;
13240;SDS011;6687;47.790;7.322;2023-05-14T19:01:23;1.25;;;0.68;;
13240;SDS011;6687;47.790;7.322;2023-05-14T19:03:51;0.60;;;0.57;;
13240;SDS011;6687;47.790;7.322;2023-05-14T19:06:17;0.50;;;0.50;;
13240;SDS011;6687;47.790;7.322;2023-05-14T19:08:44;0.80;;;0.57;;
13240;SDS011;6687;47.790;7.322;2023-05-14T19:11:11;0.80;;;0.80;;
13240;SDS011;6687;47.790;7.322;2023-05-14T19:13:38;0.52;;;0.50;;
13240;SDS011;6687;47.790;7.322;2023-05-14T19:16:05;1.25;;;0.68;;
13240;SDS011;6687;47.790;7.322;2023-05-14T19:18:33;0.60;;;0.60;;
13240;SDS011;6687;47.790;7.322;2023-05-14T19:21:00;1.23;;;0.60;;
13240;SDS011;6687;47.790;7.322;2023-05-14T19:23:26;0.68;;;0.68;;
13240;SDS011;6687;47.790;7.322;2023-05-14T19:25:55;0.50;;;0.50;;
13240;SDS011;6687;47.790;7.322;2023-05-14T19:28:21;0.75;;;0.40;;
13240;SDS011;6687;47.790;7.322;2023-05-14T19:30:48;0.32;;;0.32;;
13240;SDS011;6687;47.790;7.322;2023-05-14T19:33:17;0.50;;;0.50;;
13240;SDS011;6687;47.790;7.322;2023-05-14T19:35:45;0.32;;;0.30;;
13240;SDS011;6687;47.790;7.322;2023-05-14T19:38:12;0.40;;;0.40;;
13240;SDS011;6687;47.790;7.322;2023-05-14T19:40:39;0.43;;;0.43;;
13240;SDS011;6687;47.790;7.322;2023-05-14T19:43:05;0.47;;;0.32;;
13240;SDS011;6687;47.790;7.322;2023-05-14T19:45:33;0.65;;;0.55;;
13240;SDS011;6687;47.790;7.322;2023-05-14T19:48:03;0.85;;;0.40;;
13240;SDS011;6687;47.790;7.322;2023-05-14T19:50:30;0.73;;;0.70;;
13240;SDS011;6687;47.790;7.322;2023-05-14T19:52:58;0.80;;;0.47;;
13240;SDS011;6687;47.790;7.322;2023-05-14T19:55:25;0.40;;;0.40;;
13240;SDS011;6687;47.790;7.322;2023-05-14T19:57:52;0.40;;;0.40;;
13240;SDS011;6687;47.790;7.322;2023-05-14T20:00:19;2.28;;;1.40;;
13240;SDS011;6687;47.790;7.322;2023-05-14T20:02:46;0.90;;;0.90;;
13240;SDS011;6687;47.790;7.322;2023-05-14T20:05:13;0.70;;;0.70;;
13240;SDS011;6687;47.790;7.322;2023-05-14T20:07:40;0.50;;;0.50;;
13240;SDS011;6687;47.790;7.322;2023-05-14T20:10:09;0.65;;;0.55;;
13240;SDS011;6687;47.790;7.322;2023-05-14T20:12:36;0.40;;;0.40;;
13240;SDS011;6687;47.790;7.322;2023-05-14T20:15:04;1.13;;;0.90;;
13240;SDS011;6687;47.790;7.322;2023-05-14T20:17:32;0.88;;;0.75;;
13240;SDS011;6687;47.790;7.322;2023-05-14T20:19:58;0.40;;;0.40;;
13240;SDS011;6687;47.790;7.322;2023-05-14T20:22:25;0.50;;;0.40;;
13240;SDS011;6687;47.790;7.322;2023-05-14T20:24:52;0.40;;;0.40;;